sensor_id;sensor_type;location;lat;lon;timestamp;pressure;altitude;pressure_sealevel;temperature
15680;BMP180;15488;48.114;11.532;2024-01-06T00:00:35;94059.00;;;14.10
15680;BMP180;15488;48.114;11.532;2024-01-06T00:03:03;94059.00;;;14.20
15680;BMP180;15488;48.114;11.532;2024-01-06T00:05:31;94067.00;;;14.20
15680;BMP180;15488;48.114;11.532;2024-01-06T00:08:01;94062.00;;;14.20
15680;BMP180;15488;48.114;11.532;2024-01-06T00:10:29;94068.00;;;14.20
15680;BMP180;15488;48.114;11.532;2024-01-06T00:12:58;94056.00;;;14.20
15680;BMP180;15488;48.114;11.532;2024-01-06T00:15:26;94057.00;;;14.20
15680;BMP180;15488;48.114;11.532;2024-01-06T00:17:53;94056.00;;;14.20
15680;BMP180;15488;48.114;11.532;2024-01-06T00:20:23;94056.00;;;14.10
15680;BMP180;15488;48.114;11.532;2024-01-06T00:22:50;94054.00;;;14.10
15680;BMP180;15488;48.114;11.532;2024-01-06T00:25:19;94046.00;;;14.10
15680;BMP180;15488;48.114;11.532;2024-01-06T00:27:47;94047.00;;;14.10
15680;BMP180;15488;48.114;11.532;2024-01-06T00:30:18;94048.00;;;14.00
15680;BMP180;15488;48.114;11.532;2024-01-06T00:32:47;94050.00;;;14.10
15680;BMP180;15488;48.114;11.532;2024-01-06T00:35:15;94051.00;;;14.10
15680;BMP180;15488;48.114;11.532;2024-01-06T00:37:44;94049.00;;;14.20
15680;BMP180;15488;48.114;11.532;2024-01-06T00:40:12;94051.00;;;14.10
15680;BMP180;15488;48.114;11.532;2024-01-06T00:42:42;94058.00;;;14.20
15680;BMP180;15488;48.114;11.532;2024-01-06T00:45:15;94051.00;;;14.20
15680;BMP180;15488;48.114;11.532;2024-01-06T00:47:48;94046.00;;;14.10
15680;BMP180;15488;48.114;11.532;2024-01-06T00:50:17;94043.00;;;14.10
15680;BMP180;15488;48.114;11.532;2024-01-06T00:52:45;94042.00;;;14.10
15680;BMP180;15488;48.114;11.532;2024-01-06T00:55:12;94046.00;;;14.10
15680;BMP180;15488;48.114;11.532;2024-01-06T00:57:47;94037.00;;;14.20
15680;BMP180;15488;48.114;11.532;2024-01-06T01:00:15;94040.00;;;14.20
15680;BMP180;15488;48.114;11.532;2024-01-06T01:02:43;94043.00;;;14.20
15680;BMP180;15488;48.114;11.532;2024-01-06T01:05:11;94038.00;;;14.20
15680;BMP180;15488;48.114;11.532;2024-01-06T01:07:38;94047.00;;;14.20
15680;BMP180;15488;48.114;11.532;2024-01-06T01:10:07;94052.00;;;14.10
15680;BMP180;15488;48.114;11.532;2024-01-06T01:12:39;94048.00;;;14.20
15680;BMP180;15488;48.114;11.532;2024-01-06T01:15:08;94049.00;;;14.10
15680;BMP180;15488;48.114;11.532;2024-01-06T01:17:36;94051.00;;;14.20
15680;BMP180;15488;48.114;11.532;2024-01-06T01:20:05;94060.00;;;14.10
15680;BMP180;15488;48.114;11.532;2024-01-06T01:22:33;94053.00;;;14.20
15680;BMP180;15488;48.114;11.532;2024-01-06T01:25:00;94043.00;;;14.20
15680;BMP180;15488;48.114;11.532;2024-01-06T01:27:33;94053.00;;;14.20
15680;BMP180;15488;48.114;11.532;2024-01-06T01:30:01;94054.00;;;14.20
15680;BMP180;15488;48.114;11.532;2024-01-06T01:32:30;94049.00;;;14.20
15680;BMP180;15488;48.114;11.532;2024-01-06T01:34:58;94056.00;;;14.10
15680;BMP180;15488;48.114;11.532;2024-01-06T01:37:26;94062.00;;;14.10
15680;BMP180;15488;48.114;11.532;2024-01-06T01:39:55;94057.00;;;14.20
15680;BMP180;15488;48.114;11.532;2024-01-06T01:42:23;94063.00;;;14.10
15680;BMP180;15488;48.114;11.532;2024-01-06T01:44:50;94063.00;;;14.20
15680;BMP180;15488;48.114;11.532;2024-01-06T01:47:18;94066.00;;;14.10
15680;BMP180;15488;48.114;11.532;2024-01-06T01:49:49;94066.00;;;14.00
15680;BMP180;15488;48.114;11.532;2024-01-06T01:52:17;94069.00;;;14.10
15680;BMP180;15488;48.114;11.532;2024-01-06T01:54:46;94063.00;;;14.20
15680;BMP180;15488;48.114;11.532;2024-01-06T01:57:15;94069.00;;;14.00
15680;BMP180;15488;48.114;11.532;2024-01-06T01:59:42;94065.00;;;14.10
15680;BMP180;15488;48.114;11.532;2024-01-06T02:02:10;94065.00;;;14.00
15680;BMP180;15488;48.114;11.532;2024-01-06T02:04:38;94067.00;;;14.00
15680;BMP180;15488;48.114;11.532;2024-01-06T02:07:09;94074.00;;;14.00
15680;BMP180;15488;48.114;11.532;2024-01-06T02:09:48;94077.00;;;14.00
15680;BMP180;15488;48.114;11.532;2024-01-06T02:12:19;94075.00;;;14.00
15680;BMP180;15488;48.114;11.532;2024-01-06T02:14:51;94077.00;;;14.00
15680;BMP180;15488;48.114;11.532;2024-01-06T02:17:32;94074.00;;;14.00
15680;BMP180;15488;48.114;11.532;2024-01-06T02:20:07;94067.00;;;14.00
15680;BMP180;15488;48.114;11.532;2024-01-06T02:22:37;94067.00;;;14.00
15680;BMP180;15488;48.114;11.532;2024-01-06T02:25:14;94066.00;;;14.00
15680;BMP180;15488;48.114;11.532;2024-01-06T02:27:43;94072.00;;;14.10
15680;BMP180;15488;48.114;11.532;2024-01-06T02:30:10;94074.00;;;14.00
15680;BMP180;15488;48.114;11.532;2024-01-06T02:32:38;94069.00;;;14.10
15680;BMP180;15488;48.114;11.532;2024-01-06T02:35:06;94072.00;;;14.00
15680;BMP180;15488;48.114;11.532;2024-01-06T02:37:35;94074.00;;;14.00
15680;BMP180;15488;48.114;11.532;2024-01-06T02:40:03;94078.00;;;14.00
15680;BMP180;15488;48.114;11.532;2024-01-06T02:42:31;94075.00;;;14.00
15680;BMP180;15488;48.114;11.532;2024-01-06T02:44:59;94069.00;;;13.90
15680;BMP180;15488;48.114;11.532;2024-01-06T02:47:26;94072.00;;;14.00
15680;BMP180;15488;48.114;11.532;2024-01-06T02:49:54;94089.00;;;13.90
15680;BMP180;15488;48.114;11.532;2024-01-06T02:52:23;94087.00;;;14.00
15680;BMP180;15488;48.114;11.532;2024-01-06T02:54:52;94088.00;;;14.00
15680;BMP180;15488;48.114;11.532;2024-01-06T02:57:19;94096.00;;;13.90
15680;BMP180;15488;48.114;11.532;2024-01-06T02:59:47;94090.00;;;13.80
15680;BMP180;15488;48.114;11.532;2024-01-06T03:02:15;94089.00;;;13.90
15680;BMP180;15488;48.114;11.532;2024-01-06T03:04:42;94084.00;;;13.90
15680;BMP180;15488;48.114;11.532;2024-01-06T03:07:12;94092.00;;;14.00
15680;BMP180;15488;48.114;11.532;2024-01-06T03:09:40;94085.00;;;13.80
15680;BMP180;15488;48.114;11.532;2024-01-06T03:12:09;94085.00;;;13.90
15680;BMP180;15488;48.114;11.532;2024-01-06T03:14:37;94086.00;;;13.80
15680;BMP180;15488;48.114;11.532;2024-01-06T03:17:04;94092.00;;;13.80
15680;BMP180;15488;48.114;11.532;2024-01-06T03:19:32;94090.00;;;13.80
15680;BMP180;15488;48.114;11.532;2024-01-06T03:22:00;94100.00;;;13.90
15680;BMP180;15488;48.114;11.532;2024-01-06T03:24:27;94097.00;;;13.90
15680;BMP180;15488;48.114;11.532;2024-01-06T03:26:55;94102.00;;;13.90
15680;BMP180;15488;48.114;11.532;2024-01-06T03:29:24;94112.00;;;13.80
15680;BMP180;15488;48.114;11.532;2024-01-06T03:31:51;94106.00;;;13.30
15680;BMP180;15488;48.114;11.532;2024-01-06T03:34:19;94102.00;;;13.80
15680;BMP180;15488;48.114;11.532;2024-01-06T03:36:47;94109.00;;;13.70
15680;BMP180;15488;48.114;11.532;2024-01-06T03:39:14;94100.00;;;13.70
15680;BMP180;15488;48.114;11.532;2024-01-06T03:41:42;94106.00;;;13.80
15680;BMP180;15488;48.114;11.532;2024-01-06T03:44:09;94106.00;;;13.40
15680;BMP180;15488;48.114;11.532;2024-01-06T03:46:38;94103.00;;;13.60
15680;BMP180;15488;48.114;11.532;2024-01-06T03:49:06;94102.00;;;13.60
15680;BMP180;15488;48.114;11.532;2024-01-06T03:51:33;94111.00;;;13.60
15680;BMP180;15488;48.114;11.532;2024-01-06T03:54:01;94106.00;;;13.70
15680;BMP180;15488;48.114;11.532;2024-01-06T03:56:29;94104.00;;;13.60
15680;BMP180;15488;48.114;11.532;2024-01-06T03:58:56;94109.00;;;13.60
15680;BMP180;15488;48.114;11.532;2024-01-06T04:01:24;94109.00;;;13.60
15680;BMP180;15488;48.114;11.532;2024-01-06T04:03:53;94115.00;;;13.60
15680;BMP180;15488;48.114;11.532;2024-01-06T04:06:20;94114.00;;;13.60
15680;BMP180;15488;48.114;11.532;2024-01-06T04:08:48;94111.00;;;13.50
15680;BMP180;15488;48.114;11.532;2024-01-06T04:11:16;94115.00;;;13.60
15680;BMP180;15488;48.114;11.532;2024-01-06T04:13:44;94124.00;;;13.50
15680;BMP180;15488;48.114;11.532;2024-01-06T04:16:12;94127.00;;;13.50
15680;BMP180;15488;48.114;11.532;2024-01-06T04:18:39;94130.00;;;13.50
15680;BMP180;15488;48.114;11.532;2024-01-06T04:21:08;94129.00;;;13.50
15680;BMP180;15488;48.114;11.532;2024-01-06T04:23:37;94139.00;;;13.50
15680;BMP180;15488;48.114;11.532;2024-01-06T04:26:05;94138.00;;;13.50
15680;BMP180;15488;48.114;11.532;2024-01-06T04:28:33;94138.00;;;13.50
15680;BMP180;15488;48.114;11.532;2024-01-06T04:31:00;94138.00;;;13.50
15680;BMP180;15488;48.114;11.532;2024-01-06T04:33:28;94139.00;;;13.40
15680;BMP180;15488;48.114;11.532;2024-01-06T04:35:55;94133.00;;;13.40
15680;BMP180;15488;48.114;11.532;2024-01-06T04:38:25;94140.00;;;13.40
15680;BMP180;15488;48.114;11.532;2024-01-06T04:40:54;94146.00;;;13.40
15680;BMP180;15488;48.114;11.532;2024-01-06T04:43:22;94149.00;;;13.40
15680;BMP180;15488;48.114;11.532;2024-01-06T04:45:50;94148.00;;;13.30
15680;BMP180;15488;48.114;11.532;2024-01-06T04:48:17;94143.00;;;13.30
15680;BMP180;15488;48.114;11.532;2024-01-06T04:50:45;94146.00;;;13.30
15680;BMP180;15488;48.114;11.532;2024-01-06T04:53:12;94144.00;;;13.30
15680;BMP180;15488;48.114;11.532;2024-01-06T04:55:41;94147.00;;;13.30
15680;BMP180;15488;48.114;11.532;2024-01-06T04:58:09;94158.00;;;13.30
15680;BMP180;15488;48.114;11.532;2024-01-06T05:00:37;94163.00;;;13.30
15680;BMP180;15488;48.114;11.532;2024-01-06T05:03:05;94161.00;;;13.30
15680;BMP180;15488;48.114;11.532;2024-01-06T05:05:32;94155.00;;;13.30
15680;BMP180;15488;48.114;11.532;2024-01-06T05:08:00;94160.00;;;13.20
15680;BMP180;15488;48.114;11.532;2024-01-06T05:10:28;94161.00;;;13.20
15680;BMP180;15488;48.114;11.532;2024-01-06T05:12:56;94166.00;;;13.20
15680;BMP180;15488;48.114;11.532;2024-01-06T05:15:24;94171.00;;;13.20
15680;BMP180;15488;48.114;11.532;2024-01-06T05:17:51;94172.00;;;13.20
15680;BMP180;15488;48.114;11.532;2024-01-06T05:20:19;94186.00;;;13.20
15680;BMP180;15488;48.114;11.532;2024-01-06T05:22:47;94191.00;;;13.20
15680;BMP180;15488;48.114;11.532;2024-01-06T05:25:14;94189.00;;;13.20
15680;BMP180;15488;48.114;11.532;2024-01-06T05:27:42;94186.00;;;13.20
15680;BMP180;15488;48.114;11.532;2024-01-06T05:30:11;94188.00;;;13.10
15680;BMP180;15488;48.114;11.532;2024-01-06T05:32:39;94186.00;;;13.10
15680;BMP180;15488;48.114;11.532;2024-01-06T05:35:07;94189.00;;;13.10
15680;BMP180;15488;48.114;11.532;2024-01-06T05:37:34;94189.00;;;13.10
15680;BMP180;15488;48.114;11.532;2024-01-06T05:40:02;94195.00;;;13.10
15680;BMP180;15488;48.114;11.532;2024-01-06T05:42:30;94200.00;;;13.00
15680;BMP180;15488;48.114;11.532;2024-01-06T05:44:59;94204.00;;;13.10
15680;BMP180;15488;48.114;11.532;2024-01-06T05:47:28;94216.00;;;13.00
15680;BMP180;15488;48.114;11.532;2024-01-06T05:49:55;94205.00;;;13.00
15680;BMP180;15488;48.114;11.532;2024-01-06T05:52:23;94213.00;;;13.00
15680;BMP180;15488;48.114;11.532;2024-01-06T05:54:51;94214.00;;;13.00
15680;BMP180;15488;48.114;11.532;2024-01-06T05:57:18;94217.00;;;13.00
15680;BMP180;15488;48.114;11.532;2024-01-06T05:59:46;94228.00;;;12.90
15680;BMP180;15488;48.114;11.532;2024-01-06T06:02:15;94227.00;;;12.90
15680;BMP180;15488;48.114;11.532;2024-01-06T06:04:44;94238.00;;;12.90
15680;BMP180;15488;48.114;11.532;2024-01-06T06:07:11;94242.00;;;12.90
15680;BMP180;15488;48.114;11.532;2024-01-06T06:09:39;94241.00;;;12.90
15680;BMP180;15488;48.114;11.532;2024-01-06T06:12:07;94243.00;;;12.90
15680;BMP180;15488;48.114;11.532;2024-01-06T06:14:34;94252.00;;;12.90
15680;BMP180;15488;48.114;11.532;2024-01-06T06:17:02;94245.00;;;12.90
15680;BMP180;15488;48.114;11.532;2024-01-06T06:19:30;94258.00;;;12.90
15680;BMP180;15488;48.114;11.532;2024-01-06T06:21:58;94261.00;;;12.80
15680;BMP180;15488;48.114;11.532;2024-01-06T06:24:26;94262.00;;;12.80
15680;BMP180;15488;48.114;11.532;2024-01-06T06:26:54;94257.00;;;12.80
15680;BMP180;15488;48.114;11.532;2024-01-06T06:29:21;94265.00;;;12.80
15680;BMP180;15488;48.114;11.532;2024-01-06T06:31:49;94267.00;;;12.80
15680;BMP180;15488;48.114;11.532;2024-01-06T06:34:16;94275.00;;;12.80
15680;BMP180;15488;48.114;11.532;2024-01-06T06:36:45;94273.00;;;12.80
15680;BMP180;15488;48.114;11.532;2024-01-06T06:39:14;94278.00;;;12.80
15680;BMP180;15488;48.114;11.532;2024-01-06T06:41:44;94286.00;;;12.80
15680;BMP180;15488;48.114;11.532;2024-01-06T06:44:12;94288.00;;;12.80
15680;BMP180;15488;48.114;11.532;2024-01-06T06:46:39;94287.00;;;12.80
15680;BMP180;15488;48.114;11.532;2024-01-06T06:49:07;94291.00;;;12.70
15680;BMP180;15488;48.114;11.532;2024-01-06T06:51:34;94279.00;;;12.70
15680;BMP180;15488;48.114;11.532;2024-01-06T06:54:02;94288.00;;;12.70
15680;BMP180;15488;48.114;11.532;2024-01-06T06:56:32;94276.00;;;12.70
15680;BMP180;15488;48.114;11.532;2024-01-06T06:59:00;94279.00;;;12.60
15680;BMP180;15488;48.114;11.532;2024-01-06T07:01:28;94282.00;;;12.60
15680;BMP180;15488;48.114;11.532;2024-01-06T07:03:57;94284.00;;;12.40
15680;BMP180;15488;48.114;11.532;2024-01-06T07:06:24;94287.00;;;12.60
15680;BMP180;15488;48.114;11.532;2024-01-06T07:08:52;94287.00;;;12.60
15680;BMP180;15488;48.114;11.532;2024-01-06T07:11:19;94295.00;;;12.60
15680;BMP180;15488;48.114;11.532;2024-01-06T07:13:48;94293.00;;;12.60
15680;BMP180;15488;48.114;11.532;2024-01-06T07:16:16;94294.00;;;12.60
15680;BMP180;15488;48.114;11.532;2024-01-06T07:18:44;94296.00;;;12.60
15680;BMP180;15488;48.114;11.532;2024-01-06T07:21:12;94299.00;;;12.50
15680;BMP180;15488;48.114;11.532;2024-01-06T07:23:40;94304.00;;;12.50
15680;BMP180;15488;48.114;11.532;2024-01-06T07:26:08;94307.00;;;12.60
15680;BMP180;15488;48.114;11.532;2024-01-06T07:28:36;94306.00;;;12.60
15680;BMP180;15488;48.114;11.532;2024-01-06T07:31:05;94301.00;;;12.50
15680;BMP180;15488;48.114;11.532;2024-01-06T07:33:32;94311.00;;;12.60
15680;BMP180;15488;48.114;11.532;2024-01-06T07:36:00;94309.00;;;12.60
15680;BMP180;15488;48.114;11.532;2024-01-06T07:38:27;94312.00;;;12.60
15680;BMP180;15488;48.114;11.532;2024-01-06T07:40:57;94317.00;;;12.60
15680;BMP180;15488;48.114;11.532;2024-01-06T07:43:24;94318.00;;;12.60
15680;BMP180;15488;48.114;11.532;2024-01-06T07:45:52;94327.00;;;12.60
15680;BMP180;15488;48.114;11.532;2024-01-06T07:48:20;94333.00;;;12.60
15680;BMP180;15488;48.114;11.532;2024-01-06T07:50:47;94342.00;;;12.60
15680;BMP180;15488;48.114;11.532;2024-01-06T07:53:15;94346.00;;;12.60
15680;BMP180;15488;48.114;11.532;2024-01-06T07:55:43;94346.00;;;12.60
15680;BMP180;15488;48.114;11.532;2024-01-06T07:58:10;94347.00;;;12.60
15680;BMP180;15488;48.114;11.532;2024-01-06T08:00:38;94353.00;;;12.60
15680;BMP180;15488;48.114;11.532;2024-01-06T08:03:06;94353.00;;;12.60
15680;BMP180;15488;48.114;11.532;2024-01-06T08:05:35;94349.00;;;12.60
15680;BMP180;15488;48.114;11.532;2024-01-06T08:08:03;94355.00;;;12.60
15680;BMP180;15488;48.114;11.532;2024-01-06T08:10:31;94352.00;;;12.60
15680;BMP180;15488;48.114;11.532;2024-01-06T08:12:58;94353.00;;;12.60
15680;BMP180;15488;48.114;11.532;2024-01-06T08:15:26;94350.00;;;12.50
15680;BMP180;15488;48.114;11.532;2024-01-06T08:17:53;94348.00;;;12.50
15680;BMP180;15488;48.114;11.532;2024-01-06T08:20:21;94355.00;;;12.50
15680;BMP180;15488;48.114;11.532;2024-01-06T08:22:50;94362.00;;;12.50
15680;BMP180;15488;48.114;11.532;2024-01-06T08:25:18;94358.00;;;12.50
15680;BMP180;15488;48.114;11.532;2024-01-06T08:27:46;94369.00;;;12.50
15680;BMP180;15488;48.114;11.532;2024-01-06T08:30:13;94364.00;;;12.50
15680;BMP180;15488;48.114;11.532;2024-01-06T08:32:41;94360.00;;;12.50
15680;BMP180;15488;48.114;11.532;2024-01-06T08:35:10;94366.00;;;12.50
15680;BMP180;15488;48.114;11.532;2024-01-06T08:37:37;94362.00;;;12.50
15680;BMP180;15488;48.114;11.532;2024-01-06T08:40:08;94371.00;;;12.60
15680;BMP180;15488;48.114;11.532;2024-01-06T08:42:36;94364.00;;;12.60
15680;BMP180;15488;48.114;11.532;2024-01-06T08:45:04;94365.00;;;12.60
15680;BMP180;15488;48.114;11.532;2024-01-06T08:47:32;94372.00;;;12.60
15680;BMP180;15488;48.114;11.532;2024-01-06T08:49:59;94375.00;;;12.70
15680;BMP180;15488;48.114;11.532;2024-01-06T08:52:27;94377.00;;;12.70
15680;BMP180;15488;48.114;11.532;2024-01-06T08:54:54;94394.00;;;12.70
15680;BMP180;15488;48.114;11.532;2024-01-06T08:57:23;94391.00;;;12.80
15680;BMP180;15488;48.114;11.532;2024-01-06T08:59:51;94393.00;;;12.80
15680;BMP180;15488;48.114;11.532;2024-01-06T09:02:18;94388.00;;;12.80
15680;BMP180;15488;48.114;11.532;2024-01-06T09:04:46;94394.00;;;12.70
15680;BMP180;15488;48.114;11.532;2024-01-06T09:07:13;94395.00;;;12.70
15680;BMP180;15488;48.114;11.532;2024-01-06T09:09:43;94390.00;;;12.70
15680;BMP180;15488;48.114;11.532;2024-01-06T09:12:11;94391.00;;;12.70
15680;BMP180;15488;48.114;11.532;2024-01-06T09:14:40;94398.00;;;12.70
15680;BMP180;15488;48.114;11.532;2024-01-06T09:17:07;94392.00;;;12.70
15680;BMP180;15488;48.114;11.532;2024-01-06T09:19:35;94393.00;;;12.70
15680;BMP180;15488;48.114;11.532;2024-01-06T09:22:02;94397.00;;;12.70
15680;BMP180;15488;48.114;11.532;2024-01-06T09:24:30;94403.00;;;12.70
15680;BMP180;15488;48.114;11.532;2024-01-06T09:26:59;94401.00;;;12.70
15680;BMP180;15488;48.114;11.532;2024-01-06T09:29:27;94395.00;;;12.70
15680;BMP180;15488;48.114;11.532;2024-01-06T09:31:56;94390.00;;;12.70
15680;BMP180;15488;48.114;11.532;2024-01-06T09:34:23;94397.00;;;12.70
15680;BMP180;15488;48.114;11.532;2024-01-06T09:36:51;94398.00;;;12.80
15680;BMP180;15488;48.114;11.532;2024-01-06T09:39:18;94410.00;;;12.70
15680;BMP180;15488;48.114;11.532;2024-01-06T09:41:46;94411.00;;;12.80
15680;BMP180;15488;48.114;11.532;2024-01-06T09:44:14;94414.00;;;12.70
15680;BMP180;15488;48.114;11.532;2024-01-06T09:46:42;94425.00;;;12.70
15680;BMP180;15488;48.114;11.532;2024-01-06T09:49:12;94403.00;;;12.70
15680;BMP180;15488;48.114;11.532;2024-01-06T09:51:41;94411.00;;;12.70
15680;BMP180;15488;48.114;11.532;2024-01-06T09:54:09;94419.00;;;12.70
15680;BMP180;15488;48.114;11.532;2024-01-06T09:56:40;94413.00;;;12.80
15680;BMP180;15488;48.114;11.532;2024-01-06T09:59:08;94411.00;;;12.70
15680;BMP180;15488;48.114;11.532;2024-01-06T10:01:35;94409.00;;;12.70
15680;BMP180;15488;48.114;11.532;2024-01-06T10:04:03;94420.00;;;12.70
15680;BMP180;15488;48.114;11.532;2024-01-06T10:06:33;94413.00;;;12.70
15680;BMP180;15488;48.114;11.532;2024-01-06T10:09:02;94363.00;;;12.70
15680;BMP180;15488;48.114;11.532;2024-01-06T10:11:31;94411.00;;;12.70
15680;BMP180;15488;48.114;11.532;2024-01-06T10:13:59;94410.00;;;12.70
15680;BMP180;15488;48.114;11.532;2024-01-06T10:16:26;94410.00;;;12.60
15680;BMP180;15488;48.114;11.532;2024-01-06T10:18:54;94398.00;;;12.70
15680;BMP180;15488;48.114;11.532;2024-01-06T10:21:21;94393.00;;;12.70
15680;BMP180;15488;48.114;11.532;2024-01-06T10:23:54;94391.00;;;12.70
15680;BMP180;15488;48.114;11.532;2024-01-06T10:26:22;94388.00;;;12.70
15680;BMP180;15488;48.114;11.532;2024-01-06T10:28:49;94388.00;;;12.70
15680;BMP180;15488;48.114;11.532;2024-01-06T10:31:18;94389.00;;;12.70
15680;BMP180;15488;48.114;11.532;2024-01-06T10:33:45;94396.00;;;12.70
15680;BMP180;15488;48.114;11.532;2024-01-06T10:36:14;94396.00;;;12.70
15680;BMP180;15488;48.114;11.532;2024-01-06T10:38:42;94393.00;;;12.70
15680;BMP180;15488;48.114;11.532;2024-01-06T10:41:12;94406.00;;;12.70
15680;BMP180;15488;48.114;11.532;2024-01-06T10:43:42;94398.00;;;12.70
15680;BMP180;15488;48.114;11.532;2024-01-06T10:46:10;94398.00;;;12.70
15680;BMP180;15488;48.114;11.532;2024-01-06T10:48:39;94396.00;;;12.70
15680;BMP180;15488;48.114;11.532;2024-01-06T10:51:09;94390.00;;;12.60
15680;BMP180;15488;48.114;11.532;2024-01-06T10:53:37;94384.00;;;12.70
15680;BMP180;15488;48.114;11.532;2024-01-06T10:56:06;94389.00;;;12.50
15680;BMP180;15488;48.114;11.532;2024-01-06T10:58:36;94385.00;;;12.70
15680;BMP180;15488;48.114;11.532;2024-01-06T11:01:09;94389.00;;;12.70
15680;BMP180;15488;48.114;11.532;2024-01-06T11:03:37;94384.00;;;12.70
15680;BMP180;15488;48.114;11.532;2024-01-06T11:06:06;94380.00;;;12.70
15680;BMP180;15488;48.114;11.532;2024-01-06T11:08:43;94385.00;;;12.70
15680;BMP180;15488;48.114;11.532;2024-01-06T11:11:16;94379.00;;;12.70
15680;BMP180;15488;48.114;11.532;2024-01-06T11:13:46;94379.00;;;12.70
15680;BMP180;15488;48.114;11.532;2024-01-06T11:16:34;94380.00;;;12.70
15680;BMP180;15488;48.114;11.532;2024-01-06T11:19:02;94386.00;;;12.70
15680;BMP180;15488;48.114;11.532;2024-01-06T11:21:33;94384.00;;;12.70
15680;BMP180;15488;48.114;11.532;2024-01-06T11:24:19;94380.00;;;12.70
15680;BMP180;15488;48.114;11.532;2024-01-06T11:26:51;94372.00;;;12.70
15680;BMP180;15488;48.114;11.532;2024-01-06T11:29:20;94375.00;;;12.70
15680;BMP180;15488;48.114;11.532;2024-01-06T11:32:18;94375.00;;;12.70
15680;BMP180;15488;48.114;11.532;2024-01-06T11:34:49;94377.00;;;12.70
15680;BMP180;15488;48.114;11.532;2024-01-06T11:37:24;94371.00;;;12.70
15680;BMP180;15488;48.114;11.532;2024-01-06T11:39:52;94373.00;;;12.80
15680;BMP180;15488;48.114;11.532;2024-01-06T11:42:20;94372.00;;;12.80
15680;BMP180;15488;48.114;11.532;2024-01-06T11:44:52;94373.00;;;12.80
15680;BMP180;15488;48.114;11.532;2024-01-06T11:47:20;94368.00;;;12.90
15680;BMP180;15488;48.114;11.532;2024-01-06T11:49:54;94364.00;;;12.90
15680;BMP180;15488;48.114;11.532;2024-01-06T11:52:23;94363.00;;;13.00
15680;BMP180;15488;48.114;11.532;2024-01-06T11:54:52;94355.00;;;12.90
15680;BMP180;15488;48.114;11.532;2024-01-06T11:57:21;94354.00;;;13.00
15680;BMP180;15488;48.114;11.532;2024-01-06T11:59:49;94357.00;;;13.10
15680;BMP180;15488;48.114;11.532;2024-01-06T12:02:19;94356.00;;;13.00
15680;BMP180;15488;48.114;11.532;2024-01-06T12:04:49;94343.00;;;13.00
15680;BMP180;15488;48.114;11.532;2024-01-06T12:07:17;94342.00;;;13.00
15680;BMP180;15488;48.114;11.532;2024-01-06T12:09:46;94341.00;;;13.10
15680;BMP180;15488;48.114;11.532;2024-01-06T12:12:16;94339.00;;;13.10
15680;BMP180;15488;48.114;11.532;2024-01-06T12:14:44;94339.00;;;13.10
15680;BMP180;15488;48.114;11.532;2024-01-06T12:17:12;94340.00;;;13.00
15680;BMP180;15488;48.114;11.532;2024-01-06T12:19:41;94338.00;;;13.10
15680;BMP180;15488;48.114;11.532;2024-01-06T12:22:11;94332.00;;;13.00
15680;BMP180;15488;48.114;11.532;2024-01-06T12:24:40;94343.00;;;13.10
15680;BMP180;15488;48.114;11.532;2024-01-06T12:27:08;94342.00;;;13.10
15680;BMP180;15488;48.114;11.532;2024-01-06T12:29:38;94337.00;;;13.00
15680;BMP180;15488;48.114;11.532;2024-01-06T12:32:07;94338.00;;;13.10
15680;BMP180;15488;48.114;11.532;2024-01-06T12:34:35;94342.00;;;13.10
15680;BMP180;15488;48.114;11.532;2024-01-06T12:37:04;94344.00;;;13.10
15680;BMP180;15488;48.114;11.532;2024-01-06T12:39:34;94339.00;;;13.10
15680;BMP180;15488;48.114;11.532;2024-01-06T12:42:02;94341.00;;;13.10
15680;BMP180;15488;48.114;11.532;2024-01-06T12:44:30;94345.00;;;13.10
15680;BMP180;15488;48.114;11.532;2024-01-06T12:46:58;94349.00;;;13.10
15680;BMP180;15488;48.114;11.532;2024-01-06T12:49:26;94342.00;;;13.10
15680;BMP180;15488;48.114;11.532;2024-01-06T12:51:54;94342.00;;;13.00
15680;BMP180;15488;48.114;11.532;2024-01-06T12:54:22;94351.00;;;13.10
15680;BMP180;15488;48.114;11.532;2024-01-06T12:56:50;94340.00;;;13.00
15680;BMP180;15488;48.114;11.532;2024-01-06T12:59:18;94351.00;;;13.00
15680;BMP180;15488;48.114;11.532;2024-01-06T13:01:46;94347.00;;;12.90
15680;BMP180;15488;48.114;11.532;2024-01-06T13:04:13;94352.00;;;12.90
15680;BMP180;15488;48.114;11.532;2024-01-06T13:06:41;94355.00;;;12.90
15680;BMP180;15488;48.114;11.532;2024-01-06T13:09:09;94357.00;;;12.80
15680;BMP180;15488;48.114;11.532;2024-01-06T13:11:43;94365.00;;;12.80
15680;BMP180;15488;48.114;11.532;2024-01-06T13:14:12;94361.00;;;12.80
15680;BMP180;15488;48.114;11.532;2024-01-06T13:16:39;94363.00;;;12.80
15680;BMP180;15488;48.114;11.532;2024-01-06T13:19:07;94364.00;;;12.80
15680;BMP180;15488;48.114;11.532;2024-01-06T13:21:35;94365.00;;;12.80
15680;BMP180;15488;48.114;11.532;2024-01-06T13:24:08;94372.00;;;12.80
15680;BMP180;15488;48.114;11.532;2024-01-06T13:26:36;94370.00;;;12.80
15680;BMP180;15488;48.114;11.532;2024-01-06T13:29:05;94368.00;;;12.70
15680;BMP180;15488;48.114;11.532;2024-01-06T13:31:32;94371.00;;;12.70
15680;BMP180;15488;48.114;11.532;2024-01-06T13:34:00;94371.00;;;12.60
15680;BMP180;15488;48.114;11.532;2024-01-06T13:36:28;94365.00;;;12.60
15680;BMP180;15488;48.114;11.532;2024-01-06T13:38:55;94373.00;;;12.60
15680;BMP180;15488;48.114;11.532;2024-01-06T13:41:23;94387.00;;;12.60
15680;BMP180;15488;48.114;11.532;2024-01-06T13:43:50;94375.00;;;12.50
15680;BMP180;15488;48.114;11.532;2024-01-06T13:46:19;94381.00;;;12.50
15680;BMP180;15488;48.114;11.532;2024-01-06T13:48:47;94381.00;;;12.50
15680;BMP180;15488;48.114;11.532;2024-01-06T13:51:14;94392.00;;;12.50
15680;BMP180;15488;48.114;11.532;2024-01-06T13:53:42;94388.00;;;12.40
15680;BMP180;15488;48.114;11.532;2024-01-06T13:56:10;94376.00;;;12.40
15680;BMP180;15488;48.114;11.532;2024-01-06T13:58:37;94388.00;;;12.40
15680;BMP180;15488;48.114;11.532;2024-01-06T14:01:05;94393.00;;;12.40
15680;BMP180;15488;48.114;11.532;2024-01-06T14:03:36;94386.00;;;12.30